Quimby, Iowa
Current Conditions -  °F | °C
As of 5:55 PM on Sunday 23 Nov 2014 (Local Time) from KCKP Reporting Station
Broken Clouds Broken Clouds  
Wind Chill: 31°   Ceiling: 4100
Heat Index: 40°   Visibility: 10mi
Dew Point: 33°   Wind: 15mph
Humidity: 78%   Direction: 330°NNW
Pressure: 29.51"   Gusts: 21mph
Location:  42.63°N, 95.64°W
Report Text: KCKP 232355Z AUTO 33013G18KT 10SM BKN041 BKN110 04/01 A2951 RMK AO2 T00420007 10068 20042
Loading
Personal Weather Stations






























Interactive Weather Map New forecast layout! Learn more

10-Day Weather Forecast

Advertisements
Track Severe Weather on mobile